createdAt,value
2023-02-17T00:02:00.065Z,10.29
2023-02-17T00:04:31.895Z,10.26
2023-02-17T00:07:05.006Z,10.31
2023-02-17T00:09:35.302Z,10.31
2023-02-17T00:12:05.832Z,10.25
2023-02-17T00:14:36.366Z,10.26
2023-02-17T00:17:06.888Z,10.23
2023-02-17T00:19:37.483Z,10.18
2023-02-17T00:22:10.798Z,10.18
2023-02-17T00:24:43.605Z,10.13
2023-02-17T00:27:14.650Z,10.12
2023-02-17T00:29:45.094Z,10.16
2023-02-17T00:32:15.657Z,10.28
2023-02-17T00:34:46.220Z,10.12
2023-02-17T00:37:19.960Z,10.08
2023-02-17T00:39:50.366Z,10.11
2023-02-17T00:42:22.818Z,10.05
2023-02-17T00:44:53.189Z,10.03
2023-02-17T00:47:24.419Z,9.97
2023-02-17T00:49:54.886Z,9.98
2023-02-17T00:52:28.195Z,9.91
2023-02-17T00:54:58.720Z,9.84
2023-02-17T00:57:32.524Z,9.82
2023-02-17T01:00:02.941Z,9.92
2023-02-17T01:02:33.406Z,9.83
2023-02-17T01:05:03.910Z,9.91
2023-02-17T01:07:37.531Z,9.90
2023-02-17T01:10:09.670Z,9.92
2023-02-17T01:12:40.043Z,9.86
2023-02-17T01:15:11.710Z,9.84
2023-02-17T01:17:42.135Z,9.92
2023-02-17T01:20:13.760Z,9.92
2023-02-17T01:22:46.796Z,9.94
2023-02-17T01:25:17.086Z,9.95
2023-02-17T01:27:47.638Z,10.02
2023-02-17T01:30:18.912Z,10.11
2023-02-17T01:32:49.307Z,10.22
2023-02-17T01:35:20.018Z,10.27
2023-02-17T01:37:55.783Z,10.23
2023-02-17T01:40:27.531Z,10.29
2023-02-17T01:42:58.048Z,10.22
2023-02-17T01:45:40.084Z,10.22
2023-02-17T01:48:15.704Z,10.19
2023-02-17T01:50:50.327Z,10.21
2023-02-17T01:53:32.322Z,10.25
2023-02-17T01:56:03.036Z,10.24
2023-02-17T01:58:34.918Z,10.28
2023-02-17T02:01:09.399Z,10.33
2023-02-17T02:03:41.518Z,10.24
2023-02-17T02:06:21.838Z,10.15
2023-02-17T02:09:00.198Z,10.20
2023-02-17T02:11:32.511Z,10.10
2023-02-17T02:14:04.527Z,10.12
2023-02-17T02:16:43.034Z,10.13
2023-02-17T02:19:43.326Z,10.11
2023-02-17T02:22:43.705Z,10.14
2023-02-17T02:25:43.239Z,10.16
2023-02-17T02:28:29.833Z,10.15
2023-02-17T02:31:23.700Z,10.12
2023-02-17T02:34:02.015Z,10.08
2023-02-17T02:36:37.062Z,10.07
2023-02-17T02:39:14.542Z,10.00
2023-02-17T02:41:49.782Z,9.99
2023-02-17T02:44:23.913Z,10.02
2023-02-17T02:47:02.258Z,9.97
2023-02-17T02:49:38.763Z,9.92
2023-02-17T02:52:19.158Z,9.92
2023-02-17T02:55:00.676Z,9.93
2023-02-17T02:57:47.186Z,9.92
2023-02-17T03:00:25.498Z,9.93
2023-02-17T03:03:04.555Z,9.99
2023-02-17T03:05:50.730Z,9.96
2023-02-17T03:08:29.476Z,9.93
2023-02-17T03:11:00.086Z,9.95
2023-02-17T03:13:30.628Z,9.86
2023-02-17T03:16:01.452Z,9.88
2023-02-17T03:18:35.105Z,9.85
2023-02-17T03:21:15.603Z,9.87
2023-02-17T03:23:46.500Z,9.97
2023-02-17T03:26:16.954Z,9.94
2023-02-17T03:28:49.413Z,9.91
2023-02-17T03:31:20.136Z,9.81
2023-02-17T03:33:50.627Z,9.74
2023-02-17T03:36:23.606Z,9.74
2023-02-17T03:38:54.328Z,9.75
2023-02-17T03:41:24.872Z,9.70
2023-02-17T03:43:55.344Z,9.70
2023-02-17T03:46:25.765Z,9.67
2023-02-17T03:48:56.181Z,9.69
2023-02-17T03:51:29.727Z,9.60
2023-02-17T03:54:00.079Z,9.50
2023-02-17T03:56:30.587Z,9.60
2023-02-17T03:59:01.136Z,9.61
2023-02-17T04:01:31.684Z,9.54
2023-02-17T04:04:02.116Z,9.34
2023-02-17T04:06:35.179Z,9.30
2023-02-17T04:09:05.705Z,9.26
2023-02-17T04:11:36.163Z,9.10
2023-02-17T04:14:06.689Z,8.95
2023-02-17T04:16:39.207Z,8.86
2023-02-17T04:19:09.671Z,8.85
2023-02-17T04:21:42.763Z,8.80
2023-02-17T04:24:13.097Z,8.64
2023-02-17T04:26:43.455Z,8.65
2023-02-17T04:29:13.915Z,8.59
2023-02-17T04:31:44.485Z,8.53
2023-02-17T04:34:14.859Z,8.58
2023-02-17T04:36:47.783Z,8.63
2023-02-17T04:39:18.116Z,8.73
2023-02-17T04:41:48.548Z,8.78
2023-02-17T04:44:18.920Z,8.84
2023-02-17T04:46:49.249Z,8.88
2023-02-17T04:49:19.583Z,8.91
2023-02-17T04:51:52.517Z,9.00
2023-02-17T04:54:22.976Z,8.99
2023-02-17T04:56:53.384Z,8.93
2023-02-17T04:59:25.591Z,8.93
2023-02-17T05:01:55.973Z,8.87
2023-02-17T05:04:26.352Z,8.90
2023-02-17T05:06:59.377Z,8.88
2023-02-17T05:09:30.138Z,8.86
2023-02-17T05:12:00.551Z,8.81
2023-02-17T05:14:31.240Z,8.80
2023-02-17T05:17:01.553Z,8.84
2023-02-17T05:19:31.996Z,8.88
2023-02-17T05:22:04.999Z,8.81
2023-02-17T05:24:37.516Z,8.91
2023-02-17T05:27:08.989Z,8.85
2023-02-17T05:29:39.663Z,8.83
2023-02-17T05:32:10.235Z,8.88
2023-02-17T05:34:40.994Z,8.88
2023-02-17T05:37:14.363Z,8.94
2023-02-17T05:39:44.703Z,9.00
2023-02-17T05:42:15.106Z,9.06
2023-02-17T05:44:45.435Z,9.04
2023-02-17T05:47:15.736Z,9.01
2023-02-17T05:49:46.148Z,9.14
2023-02-17T05:52:19.543Z,9.15
2023-02-17T05:54:49.926Z,9.12
2023-02-17T05:57:20.300Z,9.08
2023-02-17T05:59:50.716Z,9.16
2023-02-17T06:02:21.355Z,9.27
2023-02-17T06:04:52.000Z,9.20
2023-02-17T06:07:25.491Z,9.24
2023-02-17T06:09:55.814Z,9.26
2023-02-17T06:12:26.170Z,9.29
2023-02-17T06:14:56.612Z,9.25
2023-02-17T06:17:26.955Z,9.24
2023-02-17T06:19:57.315Z,9.18
2023-02-17T06:22:30.257Z,9.23
2023-02-17T06:25:00.593Z,9.22
2023-02-17T06:27:30.922Z,9.17
2023-02-17T06:30:01.333Z,9.23
2023-02-17T06:32:31.848Z,9.25
2023-02-17T06:35:02.274Z,9.32
2023-02-17T06:37:35.279Z,9.29
2023-02-17T06:40:05.632Z,9.31
2023-02-17T06:42:35.999Z,9.30
2023-02-17T06:45:07.244Z,9.35
2023-02-17T06:47:37.862Z,9.20
2023-02-17T06:50:10.777Z,9.17
2023-02-17T06:52:43.707Z,9.20
2023-02-17T06:55:14.385Z,9.13
2023-02-17T06:57:44.931Z,9.13
2023-02-17T07:00:16.530Z,9.17
2023-02-17T07:02:46.953Z,9.20
2023-02-17T07:05:17.621Z,9.21
2023-02-17T07:07:53.257Z,9.22
2023-02-17T07:10:23.742Z,9.16
2023-02-17T07:12:54.629Z,9.17
2023-02-17T07:15:25.216Z,9.13
2023-02-17T07:17:55.582Z,9.25
2023-02-17T07:20:25.965Z,9.34
2023-02-17T07:22:59.066Z,9.29
2023-02-17T07:25:29.663Z,9.30
2023-02-17T07:28:00.026Z,9.28
2023-02-17T07:30:30.642Z,9.26
2023-02-17T07:33:01.154Z,9.29
2023-02-17T07:35:31.660Z,9.28
2023-02-17T07:38:04.899Z,9.32
2023-02-17T07:40:35.291Z,9.31
2023-02-17T07:43:05.956Z,9.39
2023-02-17T07:45:37.394Z,9.51
2023-02-17T07:48:08.490Z,9.56
2023-02-17T07:50:38.534Z,9.55
2023-02-17T07:53:11.557Z,9.56
2023-02-17T07:55:41.867Z,9.60
2023-02-17T07:58:12.171Z,9.63
2023-02-17T08:00:42.470Z,9.65
2023-02-17T08:03:12.866Z,9.63
2023-02-17T08:05:44.441Z,9.65
2023-02-17T08:08:29.707Z,9.67
2023-02-17T08:11:16.708Z,9.72
2023-02-17T08:13:48.306Z,9.68
2023-02-17T08:16:18.611Z,9.74
2023-02-17T08:18:48.987Z,9.77
2023-02-17T08:21:19.276Z,9.83
2023-02-17T08:23:52.225Z,9.79
2023-02-17T08:26:22.810Z,9.79
2023-02-17T08:28:53.240Z,9.82
2023-02-17T08:31:26.493Z,9.79
2023-02-17T08:33:57.405Z,9.84
2023-02-17T08:36:28.114Z,9.84
2023-02-17T08:39:02.186Z,9.92
2023-02-17T08:41:35.865Z,9.88
2023-02-17T08:44:10.901Z,9.88
2023-02-17T08:46:41.760Z,9.88
2023-02-17T08:49:12.377Z,9.93
2023-02-17T08:51:42.990Z,9.89
2023-02-17T08:54:16.748Z,9.94
2023-02-17T08:56:47.476Z,9.97
2023-02-17T08:59:18.166Z,10.06
2023-02-17T09:01:48.658Z,10.08
2023-02-17T09:04:20.049Z,10.15
2023-02-17T09:06:53.963Z,10.17
2023-02-17T09:09:29.798Z,10.20
2023-02-17T09:12:01.646Z,10.25
2023-02-17T09:14:32.303Z,10.35
2023-02-17T09:17:03.034Z,10.43
2023-02-17T09:19:33.431Z,10.41
2023-02-17T09:22:03.782Z,10.71
2023-02-17T09:24:38.908Z,11.08
2023-02-17T09:27:09.427Z,11.30
2023-02-17T09:29:40.892Z,11.38
2023-02-17T09:32:12.522Z,11.33
2023-02-17T09:34:43.570Z,11.23
2023-02-17T09:37:17.684Z,11.31
2023-02-17T09:39:51.939Z,11.26
2023-02-17T09:42:26.176Z,11.40
2023-02-17T09:45:04.109Z,11.33
2023-02-17T09:47:40.922Z,11.43
2023-02-17T09:50:15.364Z,11.28
2023-02-17T09:52:53.786Z,11.11
2023-02-17T09:55:31.730Z,11.11
2023-02-17T09:58:07.130Z,11.23
2023-02-17T10:00:42.909Z,11.17
2023-02-17T10:03:19.189Z,11.11
2023-02-17T10:05:54.850Z,11.27
2023-02-17T10:08:29.718Z,11.38
2023-02-17T10:11:08.625Z,11.36
2023-02-17T10:13:40.893Z,11.31
2023-02-17T10:16:19.080Z,11.36
2023-02-17T10:18:55.091Z,11.41
2023-02-17T10:21:31.976Z,11.29
2023-02-17T10:24:02.425Z,11.22
2023-02-17T10:26:56.113Z,11.20
2023-02-17T10:29:40.605Z,11.29
2023-02-17T10:32:25.321Z,11.48
2023-02-17T10:35:14.308Z,11.65
2023-02-17T10:37:50.584Z,11.57
2023-02-17T10:40:24.489Z,11.65
2023-02-17T10:43:06.260Z,11.88
2023-02-17T10:45:41.524Z,11.90
2023-02-17T10:48:16.807Z,11.79
2023-02-17T10:50:49.197Z,11.86
2023-02-17T10:53:23.083Z,11.97
2023-02-17T10:56:04.389Z,11.85
2023-02-17T10:58:44.651Z,11.77
2023-02-17T11:01:15.889Z,11.71
2023-02-17T11:03:46.273Z,11.60
2023-02-17T11:06:22.379Z,11.66
2023-02-17T11:08:55.809Z,11.67
2023-02-17T11:11:28.369Z,11.60
2023-02-17T11:14:13.860Z,11.44
2023-02-17T11:16:47.681Z,11.44
2023-02-17T11:19:28.732Z,11.39
2023-02-17T11:22:01.930Z,11.42
2023-02-17T11:24:34.938Z,11.39
2023-02-17T11:27:08.209Z,11.30
2023-02-17T11:29:41.260Z,11.25
2023-02-17T11:32:15.154Z,11.26
2023-02-17T11:34:47.296Z,11.38
2023-02-17T11:37:27.180Z,11.50
2023-02-17T11:40:00.355Z,11.55
2023-02-17T11:42:34.275Z,11.48
2023-02-17T11:45:21.610Z,11.48
2023-02-17T11:48:09.984Z,11.55
2023-02-17T11:50:47.886Z,11.83
2023-02-17T11:53:40.549Z,12.08
2023-02-17T11:56:20.108Z,12.15
2023-02-17T11:59:15.098Z,12.15
2023-02-17T12:02:05.572Z,12.20
2023-02-17T12:04:37.515Z,12.06
2023-02-17T12:07:31.318Z,12.03
2023-02-17T12:10:08.834Z,12.02
2023-02-17T12:12:59.005Z,12.13
2023-02-17T12:15:47.380Z,12.05
2023-02-17T12:18:40.342Z,12.14
2023-02-17T12:21:18.860Z,12.17
2023-02-17T12:24:20.911Z,12.16
2023-02-17T12:26:56.976Z,12.10
2023-02-17T12:29:45.582Z,12.12
2023-02-17T12:32:36.238Z,11.95
2023-02-17T12:35:21.413Z,11.92
2023-02-17T12:37:57.924Z,11.96
2023-02-17T12:40:38.756Z,11.99
2023-02-17T12:43:20.634Z,12.14
2023-02-17T12:45:52.546Z,12.06
2023-02-17T12:48:31.521Z,12.02
2023-02-17T12:51:12.489Z,12.07
2023-02-17T12:53:50.412Z,12.03
2023-02-17T12:56:46.332Z,12.00
2023-02-17T12:59:21.217Z,12.10
2023-02-17T13:01:58.436Z,12.18
2023-02-17T13:04:30.161Z,12.16
2023-02-17T13:07:20.300Z,12.20
2023-02-17T13:09:52.872Z,12.11
2023-02-17T13:12:43.955Z,12.13
2023-02-17T13:15:35.022Z,12.35
2023-02-17T13:18:08.998Z,12.34
2023-02-17T13:21:00.471Z,12.43
2023-02-17T13:23:39.680Z,12.51
2023-02-17T13:26:37.125Z,12.65
2023-02-17T13:29:24.931Z,12.62
2023-02-17T13:31:58.292Z,12.76
2023-02-17T13:34:36.356Z,12.60
2023-02-17T13:37:22.899Z,12.62
2023-02-17T13:39:58.021Z,12.66
2023-02-17T13:42:42.318Z,12.62
2023-02-17T13:45:25.732Z,12.56
2023-02-17T13:47:59.309Z,12.64
2023-02-17T13:50:35.042Z,12.64
2023-02-17T13:53:23.050Z,12.82
2023-02-17T13:55:58.082Z,12.87
2023-02-17T13:58:31.637Z,12.77
2023-02-17T14:01:04.385Z,12.87
2023-02-17T14:03:44.005Z,12.92
2023-02-17T14:06:25.171Z,12.86
2023-02-17T14:08:55.269Z,12.98
2023-02-17T14:11:33.028Z,12.95
2023-02-17T14:14:04.445Z,12.76
2023-02-17T14:16:37.282Z,12.85
2023-02-17T14:19:10.708Z,12.73
2023-02-17T14:21:43.686Z,12.79
2023-02-17T14:24:30.117Z,12.89
2023-02-17T14:27:05.861Z,12.82
2023-02-17T14:29:45.183Z,12.81
2023-02-17T14:32:32.286Z,12.64
2023-02-17T14:35:24.872Z,12.63
2023-02-17T14:37:55.331Z,12.69
2023-02-17T14:40:28.105Z,12.72
2023-02-17T14:43:01.345Z,12.65
2023-02-17T14:45:31.714Z,12.62
2023-02-17T14:48:02.084Z,12.63
2023-02-17T14:50:34.245Z,12.58
2023-02-17T14:53:04.607Z,12.51
2023-02-17T14:55:39.740Z,12.49
2023-02-17T14:58:20.494Z,12.45
2023-02-17T15:00:51.923Z,12.44
2023-02-17T15:03:22.503Z,12.51
2023-02-17T15:05:53.189Z,12.48
2023-02-17T15:08:26.849Z,12.52
2023-02-17T15:10:57.156Z,12.51
2023-02-17T15:13:31.860Z,12.52
2023-02-17T15:16:02.703Z,12.53
2023-02-17T15:18:33.156Z,12.54
2023-02-17T15:21:03.575Z,12.48
2023-02-17T15:23:37.375Z,12.55
2023-02-17T15:26:12.354Z,12.51
2023-02-17T15:28:45.348Z,12.45
2023-02-17T15:31:17.427Z,12.46
2023-02-17T15:33:48.461Z,12.48
2023-02-17T15:36:20.082Z,12.59
2023-02-17T15:38:50.413Z,12.48
2023-02-17T15:41:24.616Z,12.48
2023-02-17T15:43:59.268Z,12.47
2023-02-17T15:46:34.058Z,12.43
2023-02-17T15:49:04.672Z,12.49
2023-02-17T15:51:35.159Z,12.51
2023-02-17T15:54:05.606Z,12.55
2023-02-17T15:56:47.375Z,12.47
2023-02-17T15:59:25.388Z,12.47
2023-02-17T16:01:56.392Z,12.43
2023-02-17T16:04:26.545Z,12.42
2023-02-17T16:06:56.951Z,12.43
2023-02-17T16:09:27.501Z,12.40
2023-02-17T16:11:58.350Z,12.41
2023-02-17T16:14:38.138Z,12.39
2023-02-17T16:17:17.714Z,12.43
2023-02-17T16:19:48.043Z,12.47
2023-02-17T16:22:18.490Z,12.45
2023-02-17T16:24:48.850Z,12.40
2023-02-17T16:27:20.083Z,12.39
2023-02-17T16:29:53.168Z,12.35
2023-02-17T16:32:23.572Z,12.35
2023-02-17T16:34:54.023Z,12.35
2023-02-17T16:37:24.325Z,12.37
2023-02-17T16:39:54.799Z,12.41
2023-02-17T16:42:25.692Z,12.49
2023-02-17T16:44:58.635Z,12.54
2023-02-17T16:47:29.168Z,12.54
2023-02-17T16:49:59.602Z,12.54
2023-02-17T16:52:31.167Z,12.57
2023-02-17T16:55:01.556Z,12.55
2023-02-17T16:57:32.009Z,12.53
2023-02-17T17:00:05.479Z,12.55
2023-02-17T17:02:35.822Z,12.51
2023-02-17T17:05:06.357Z,12.51
2023-02-17T17:07:36.837Z,12.53
2023-02-17T17:10:16.350Z,12.56
2023-02-17T17:12:48.629Z,12.59
2023-02-17T17:15:22.685Z,12.57
2023-02-17T17:17:59.685Z,12.59
2023-02-17T17:20:35.051Z,12.64
2023-02-17T17:23:08.399Z,12.68
2023-02-17T17:25:43.056Z,12.73
2023-02-17T17:28:17.262Z,12.68
2023-02-17T17:30:51.449Z,12.67
2023-02-17T17:33:21.783Z,12.70
2023-02-17T17:35:52.220Z,12.73
2023-02-17T17:38:22.769Z,12.78
2023-02-17T17:40:57.078Z,12.79
2023-02-17T17:43:28.200Z,12.77
2023-02-17T17:46:01.327Z,12.73
2023-02-17T17:48:32.008Z,12.78
2023-02-17T17:51:02.428Z,12.76
2023-02-17T17:53:32.837Z,12.80
2023-02-17T17:56:03.216Z,12.79
2023-02-17T17:58:37.647Z,12.82
2023-02-17T18:01:11.506Z,12.85
2023-02-17T18:03:42.139Z,12.84
2023-02-17T18:06:17.609Z,12.80
2023-02-17T18:08:49.728Z,12.72
2023-02-17T18:11:21.746Z,12.68
2023-02-17T18:13:56.377Z,12.69
2023-02-17T18:16:30.656Z,12.72
2023-02-17T18:19:02.729Z,12.71
2023-02-17T18:21:33.337Z,12.72
2023-02-17T18:24:03.898Z,12.75
2023-02-17T18:26:34.756Z,12.73
2023-02-17T18:29:05.333Z,12.68
2023-02-17T18:31:38.484Z,12.67
2023-02-17T18:34:08.910Z,12.63
2023-02-17T18:36:39.301Z,12.55
2023-02-17T18:39:09.739Z,12.45
2023-02-17T18:41:40.728Z,12.44
2023-02-17T18:44:11.635Z,12.41
2023-02-17T18:46:44.747Z,12.39
2023-02-17T18:49:15.099Z,12.37
2023-02-17T18:51:45.436Z,12.38
2023-02-17T18:54:15.789Z,12.33
2023-02-17T18:56:46.196Z,12.27
2023-02-17T18:59:16.645Z,12.24
2023-02-17T19:01:49.722Z,12.29
2023-02-17T19:04:20.085Z,12.33
2023-02-17T19:06:50.447Z,12.26
2023-02-17T19:09:20.898Z,12.21
2023-02-17T19:11:51.190Z,12.15
2023-02-17T19:14:21.510Z,12.09
2023-02-17T19:16:55.939Z,12.09
2023-02-17T19:19:27.589Z,12.06
2023-02-17T19:21:58.073Z,12.03
2023-02-17T19:24:28.466Z,11.96
2023-02-17T19:26:58.827Z,11.84
2023-02-17T19:29:29.399Z,11.80
2023-02-17T19:32:03.841Z,11.77
2023-02-17T19:34:35.539Z,11.87
2023-02-17T19:37:05.789Z,11.98
2023-02-17T19:39:38.159Z,12.01
2023-02-17T19:42:08.763Z,11.97
2023-02-17T19:44:39.215Z,11.88
2023-02-17T19:47:12.286Z,11.85
2023-02-17T19:49:42.865Z,11.72
2023-02-17T19:52:14.350Z,11.66
2023-02-17T19:54:44.696Z,11.61
2023-02-17T19:57:18.835Z,11.51
2023-02-17T19:59:49.280Z,11.44
2023-02-17T20:02:22.252Z,11.45
2023-02-17T20:04:52.599Z,11.43
2023-02-17T20:07:23.159Z,11.35
2023-02-17T20:09:53.739Z,11.35
2023-02-17T20:12:24.356Z,11.36
2023-02-17T20:14:56.122Z,11.35
2023-02-17T20:17:29.254Z,11.33
2023-02-17T20:19:59.748Z,11.37
2023-02-17T20:22:30.223Z,11.33
2023-02-17T20:25:00.929Z,11.40
2023-02-17T20:27:31.314Z,11.35
2023-02-17T20:30:02.543Z,11.38
2023-02-17T20:32:36.231Z,11.40
2023-02-17T20:35:06.547Z,11.41
2023-02-17T20:37:36.926Z,11.43
2023-02-17T20:40:08.207Z,11.50
2023-02-17T20:42:38.681Z,11.51
2023-02-17T20:45:09.685Z,11.48
2023-02-17T20:47:42.688Z,11.50
2023-02-17T20:50:17.689Z,11.54
2023-02-17T20:52:48.618Z,11.51
2023-02-17T20:55:19.809Z,11.48
2023-02-17T20:57:50.740Z,11.45
2023-02-17T21:00:25.403Z,11.52
2023-02-17T21:02:58.588Z,11.50
2023-02-17T21:05:29.185Z,11.52
2023-02-17T21:08:00.764Z,11.50
2023-02-17T21:10:34.286Z,11.49
2023-02-17T21:13:04.686Z,11.52
2023-02-17T21:15:36.352Z,11.52
2023-02-17T21:18:09.706Z,11.41
2023-02-17T21:20:40.027Z,11.44
2023-02-17T21:23:10.773Z,11.37
2023-02-17T21:25:41.136Z,11.39
2023-02-17T21:28:11.755Z,11.35
2023-02-17T21:30:42.284Z,11.37
2023-02-17T21:33:15.289Z,11.36
2023-02-17T21:35:45.563Z,11.34
2023-02-17T21:38:16.973Z,11.30
2023-02-17T21:40:49.804Z,11.31
2023-02-17T21:43:33.609Z,11.31
2023-02-17T21:46:04.050Z,11.23
2023-02-17T21:48:37.902Z,11.24
2023-02-17T21:51:14.286Z,11.30
2023-02-17T21:53:44.618Z,11.32
2023-02-17T21:56:15.030Z,11.36
2023-02-17T21:58:49.331Z,11.39
2023-02-17T22:01:20.464Z,11.41
2023-02-17T22:03:53.718Z,11.40
2023-02-17T22:06:27.309Z,11.41
2023-02-17T22:08:58.531Z,11.44
2023-02-17T22:11:31.226Z,11.52
2023-02-17T22:14:03.963Z,11.56
2023-02-17T22:16:36.688Z,11.58
2023-02-17T22:19:12.177Z,11.59
2023-02-17T22:21:42.579Z,11.64
2023-02-17T22:24:13.007Z,11.64
2023-02-17T22:26:43.615Z,11.56
2023-02-17T22:29:14.035Z,11.55
2023-02-17T22:31:44.514Z,11.49
2023-02-17T22:34:18.635Z,11.52
2023-02-17T22:36:48.917Z,11.51
2023-02-17T22:39:19.534Z,11.55
2023-02-17T22:41:49.962Z,11.61
2023-02-17T22:44:20.413Z,11.57
2023-02-17T22:46:50.767Z,11.61
2023-02-17T22:49:23.840Z,11.67
2023-02-17T22:51:54.132Z,11.56
2023-02-17T22:54:24.552Z,11.57
2023-02-17T22:56:54.948Z,11.58
2023-02-17T22:59:25.368Z,11.60
2023-02-17T23:01:55.811Z,11.65
2023-02-17T23:04:29.196Z,11.66
2023-02-17T23:06:59.545Z,11.75
2023-02-17T23:09:30.029Z,11.82
2023-02-17T23:12:00.394Z,11.87
2023-02-17T23:14:36.785Z,11.83
2023-02-17T23:17:10.244Z,11.85
2023-02-17T23:19:44.820Z,11.85
2023-02-17T23:22:19.144Z,11.85
2023-02-17T23:24:50.980Z,11.72
2023-02-17T23:27:21.223Z,11.63
2023-02-17T23:29:51.591Z,11.53
2023-02-17T23:32:21.942Z,11.43
2023-02-17T23:34:54.931Z,11.26
2023-02-17T23:37:25.287Z,11.20
2023-02-17T23:39:55.654Z,11.07
2023-02-17T23:42:26.107Z,11.00
2023-02-17T23:44:56.779Z,10.94
2023-02-17T23:47:27.410Z,10.83
2023-02-17T23:50:00.311Z,10.80
2023-02-17T23:52:30.787Z,10.77
2023-02-17T23:55:01.148Z,10.71
2023-02-17T23:57:31.515Z,10.66
